Aviation Digital Data Service (ADDS)

Output produced by METARs form (2008 UTC 25 August 2016)
found at http://aviationweather.gov/adds/metars/
 
KMPV 251731Z 2518/2618 18010G18KT P6SM VCSH SCT035 BKN060 
     TEMPO 2518/2520 5SM -SHRA BR SCT025 OVC040 
     FM252100 19005KT P6SM SCT025 BKN040 
     FM260500 00000KT 4SM BR BKN015 OVC035 
     FM261300 VRB03KT P6SM BKN025 OVC040 
     FM261500 29004KT P6SM SCT050